Date,TemperatureHighF,TemperatureAvgF,TemperatureLowF,DewpointHighF,DewpointAvgF,DewpointLowF,HumidityHigh,HumidityAvg,HumidityLow,PressureMaxIn,PressureMinIn,WindSpeedMaxMPH,WindSpeedAvgMPH,GustSpeedMaxMPH,PrecipitationSumIn
2013-3-1,40.2,36.2,30.0,37.7,33.3,28.5,97,89,82,30.17,30.00,11,3,16,0.00
2013-3-2,46.5,37.8,28.0,31.1,28.0,24.6,87,69,47,30.16,30.05,8,2,13,0.00
2013-3-3,47.4,36.5,25.0,31.4,27.3,22.6,94,71,45,30.13,30.00,11,3,21,0.00
2013-3-4,48.3,35.7,24.6,30.0,25.9,22.0,92,70,43,30.35,30.09,12,1,16,0.00
2013-3-5,51.7,39.7,25.6,28.8,24.7,20.7,89,59,31,30.36,30.14,11,3,17,0.00
2013-3-6,49.4,42.5,34.2,41.2,33.7,27.5,80,71,62,30.14,29.82,5,1,9,0.00
2013-3-7,54.5,49.1,44.3,47.6,44.0,40.3,92,83,75,29.82,29.67,8,2,14,0.00
2013-3-8,56.4,49.9,46.0,50.3,47.1,44.6,96,90,79,29.67,29.59,7,1,13,0.01
2013-3-9,56.1,50.0,47.3,50.4,47.8,44.9,97,92,80,29.59,29.55,6,1,10,0.02
2013-3-10,55.1,49.6,45.9,49.6,46.5,44.0,97,89,75,29.55,29.45,5,1,8,0.05
2013-3-11,57.7,46.3,36.0,47.7,40.2,33.8,97,81,51,29.55,29.45,10,2,20,0.06
2013-3-12,54.7,45.6,33.9,43.5,38.1,31.1,92,76,59,29.56,29.44,9,2,12,0.02
2013-3-13,50.4,46.4,42.6,46.9,44.1,40.1,96,91,84,29.46,29.40,5,1,8,0.10
2013-3-14,45.4,37.7,28.9,44.0,36.1,27.6,95,94,93,29.45,29.26,9,2,14,0.61
2013-3-15,31.2,28.5,25.4,27.5,23.2,18.3,95,81,61,29.90,29.26,12,2,22,0.18
2013-3-16,35.1,28.9,20.2,21.4,19.4,14.2,88,69,44,30.16,29.90,10,2,15,0.00
2013-3-17,35.8,27.6,17.6,23.8,18.9,14.6,93,71,42,30.18,30.02,14,4,20,0.00
2013-3-18,36.9,32.8,28.1,34.7,27.5,18.9,95,81,66,30.02,29.37,16,5,25,0.57
2013-3-19,49.4,40.8,33.4,39.8,35.5,30.0,97,82,55,29.69,29.29,15,5,25,0.05
2013-3-20,58.2,46.3,31.4,41.7,36.5,28.5,92,70,44,29.75,29.69,11,2,17,0.00
2013-3-21,49.7,42.9,35.8,43.2,40.3,32.0,95,91,74,29.76,29.71,14,4,26,0.46
2013-3-22,45.4,37.2,30.5,33.6,29.1,24.8,86,73,53,29.96,29.75,16,7,27,0.00
2013-3-23,35.1,30.3,25.6,27.0,24.6,17.6,92,79,64,30.11,29.95,8,1,13,0.00
2013-3-24,35.6,28.7,22.4,17.4,12.7,9.5,71,52,36,30.19,30.09,9,2,15,0.00
2013-3-25,37.2,31.0,27.7,28.3,18.2,11.0,92,61,43,30.09,29.72,10,3,14,0.20
2013-3-26,32.7,30.0,27.5,28.9,27.2,25.5,93,89,81,29.76,29.68,7,2,12,0.19
2013-3-27,33.7,30.6,27.5,30.5,28.4,25.7,94,91,85,29.94,29.76,5,1,8,0.06
2013-3-28,37.1,33.7,31.2,31.5,29.6,27.4,96,85,70,30.04,29.94,11,3,16,0.00
2013-3-29,37.2,34.9,33.1,35.6,33.1,30.1,95,93,87,29.99,29.73,11,2,17,0.46
2013-3-30,46.7,40.0,33.2,42.3,37.6,32.2,97,91,80,29.74,29.55,9,1,15,0.12
2013-3-31,49.1,42.1,33.2,48.1,40.7,29.1,97,95,85,29.61,29.36,14,4,23,0.38